Boonville, CA (95415)

9:30 AM PDT on August 29, 2016 (GMT -0700)
Anderson Valley | | Change Station

Elev 410 ft 39.01 °N, 123.36 °W | Updated 5 minutes ago

Clear
Clear
49.0 °F
Feels Like 49 °F
N
3.0
Wind Variable Wind from NW
Gusts 5.0 mph

Today
High -- | Low -- °F
--% Chance of Precip.
Yesterday
High -- | Low -- °F
Precip. -- in
Pressure 30.10 in
Visibility 10.0 miles
Clouds Clear
Windchill 49 °F
Dew Point 48 °F
Humidity 97%
Rainfall 0.02 in
Snow Depth Not available.
6:40 AM 7:47 PM
Waning Crescent, 8% visible
METAR KUKI 291556Z AUTO 00000KT 10SM CLR 15/11 A3012 RMK AO2 SLP193 T01500106
Pressure 30.10 in
Visibility 10.0 miles
Clouds Clear
Windchill 49 °F
Dew Point 48 °F
Humidity 97%
Rainfall 0.02 in
Snow Depth Not available.
6:40 AM 7:47 PM
Waning Crescent, 8% visible
METAR KUKI 291556Z AUTO 00000KT 10SM CLR 15/11 A3012 RMK AO2 SLP193 T01500106

10-Day Weather Forecast

Almanac

Astronomy

Aug. 29, 2016 Rise Set
Actual Time
Civil Twilight
Nautical Twilight
Astronomical Twilight
Moon
Length of Visible Light
Length of Day
Tomorrow will be .
, % of the Moon is Illuminated

Today's Extremes

State Highs State Lows

Community

WunderPhotos

Upload Photos

1,935,867 photos uploaded!

WunderBlog® & News

Nearby

Air Quality

  Air Quality AQ Index Pollutant
Not available.

Snow Depth

Station Depth Elevation

Earthquake Activity

City Distance Mag. Time & Date
Minimum magnitude displayed is 2.5.

Coastal Water Temperatures

Place Temperature

Stations

Nearby Weather Stations

Station Location Temp. Windchill Dew Point Humidity Wind Precip. Elev Updated Type
                   

Watches & Warnings

There are currently no watches in effect.